Hartford, Connecticut
Traffic Map
Current Weather Conditions
Hartford, Connecticut
Clear Light Snow
Clear
15°
Feels Like: 5°
Wind Chill: Ceiling: Unl
Heat Index: 15° Visibility: 9mi
Dew Point: Wind: 7mph
Humidity: 61% Direction: 320° (NW)
Pressure: 29.86in Gusts: 0mph
Raw Report DataKHFD 280853Z AUTO 32006KT 9SM -SN CLR M09/M16 A2986 RMK AO2 SLP112 P0000 60000 T10941156 53023 $
Traffic Incident Summary
Active as of:
Severity:
Category:
InformationThere was an issue retrieving the traffic information for this location. Please try a different location or try again shortly.
Advertisements
Track Severe Weather on mobile